createdAt,value
2022-11-24T00:00:17.684Z,20.85
2022-11-24T00:02:44.750Z,21.92
2022-11-24T00:05:13.274Z,22.10
2022-11-24T00:07:40.201Z,23.90
2022-11-24T00:10:07.769Z,22.08
2022-11-24T00:12:34.998Z,20.75
2022-11-24T00:15:02.037Z,20.30
2022-11-24T00:17:29.486Z,20.52
2022-11-24T00:19:56.474Z,21.52
2022-11-24T00:22:24.881Z,20.73
2022-11-24T00:24:51.833Z,23.92
2022-11-24T00:27:18.783Z,34.72
2022-11-24T00:29:45.693Z,21.25
2022-11-24T00:32:12.600Z,21.52
2022-11-24T00:34:39.579Z,19.88
2022-11-24T00:37:06.582Z,27.27
2022-11-24T00:39:34.898Z,20.35
2022-11-24T00:42:02.132Z,20.60
2022-11-24T00:44:29.085Z,19.15
2022-11-24T00:46:56.173Z,18.05
2022-11-24T00:49:23.157Z,21.25
2022-11-24T00:51:50.120Z,20.13
2022-11-24T00:54:17.089Z,18.63
2022-11-24T00:56:45.419Z,19.48
2022-11-24T00:59:12.333Z,19.77
2022-11-24T01:01:39.400Z,19.33
2022-11-24T01:04:06.393Z,18.55
2022-11-24T01:06:35.281Z,19.50
2022-11-24T01:09:03.415Z,18.42
2022-11-24T01:11:50.479Z,18.25
2022-11-24T01:14:19.695Z,15.82
2022-11-24T01:16:46.641Z,16.45
2022-11-24T01:19:13.672Z,15.55
2022-11-24T01:21:40.822Z,16.65
2022-11-24T01:24:08.041Z,17.15
2022-11-24T01:26:35.011Z,14.70
2022-11-24T01:29:01.951Z,18.60
2022-11-24T01:31:30.271Z,15.52
2022-11-24T01:33:57.163Z,13.85
2022-11-24T01:36:24.176Z,14.73
2022-11-24T01:38:51.904Z,19.90
2022-11-24T01:41:20.658Z,19.95
2022-11-24T01:43:48.189Z,15.63
2022-11-24T01:46:20.232Z,15.75
2022-11-24T01:48:52.877Z,17.77
2022-11-24T01:51:23.656Z,16.67
2022-11-24T01:53:55.585Z,16.90
2022-11-24T01:56:23.364Z,15.95
2022-11-24T01:58:53.257Z,18.40
2022-11-24T02:01:20.563Z,18.95
2022-11-24T02:03:50.224Z,19.92
2022-11-24T02:06:20.309Z,18.80
2022-11-24T02:08:55.321Z,21.02
2022-11-24T02:11:24.702Z,24.42
2022-11-24T02:13:53.449Z,21.58
2022-11-24T02:16:20.819Z,19.13
2022-11-24T02:18:49.525Z,21.17
2022-11-24T02:21:17.146Z,39.97
2022-11-24T02:23:51.026Z,26.27
2022-11-24T02:26:32.760Z,23.27
2022-11-24T02:28:59.808Z,22.70
2022-11-24T02:31:26.811Z,25.30
2022-11-24T02:33:54.826Z,24.52
2022-11-24T02:36:21.979Z,34.60
2022-11-24T02:38:48.889Z,25.40
2022-11-24T02:41:20.088Z,26.48
2022-11-24T02:43:52.040Z,21.17
2022-11-24T02:46:19.104Z,21.73
2022-11-24T02:48:46.140Z,26.55
2022-11-24T02:51:13.132Z,23.27
2022-11-24T02:53:40.107Z,19.10
2022-11-24T02:56:07.689Z,22.73
2022-11-24T02:58:34.947Z,21.40
2022-11-24T03:01:04.905Z,20.85
2022-11-24T03:03:32.000Z,20.52
2022-11-24T03:05:58.995Z,17.45
2022-11-24T03:08:26.100Z,18.88
2022-11-24T03:10:53.068Z,17.42
2022-11-24T03:13:20.057Z,17.75
2022-11-24T03:15:46.994Z,17.98
2022-11-24T03:18:15.343Z,16.77
2022-11-24T03:20:42.398Z,15.20
2022-11-24T03:23:09.452Z,20.00
2022-11-24T03:25:36.465Z,14.50
2022-11-24T03:28:03.721Z,15.55
2022-11-24T03:30:30.686Z,13.40
2022-11-24T03:32:58.126Z,10.68
2022-11-24T03:35:26.428Z,10.90
2022-11-24T03:37:53.545Z,11.13
2022-11-24T03:40:20.588Z,19.10
2022-11-24T03:42:47.762Z,16.40
2022-11-24T03:45:45.367Z,42.00
2022-11-24T03:48:02.168Z,13.48
2022-11-24T03:50:30.630Z,20.05
2022-11-24T03:52:57.990Z,14.60
2022-11-24T03:55:25.044Z,19.30
2022-11-24T03:57:52.033Z,16.95
2022-11-24T04:00:19.355Z,23.50
2022-11-24T04:02:48.237Z,16.10
2022-11-24T04:05:15.653Z,18.25
2022-11-24T04:07:44.142Z,14.48
2022-11-24T04:10:11.423Z,15.15
2022-11-24T04:12:44.866Z,15.50
2022-11-24T04:15:13.477Z,13.43
2022-11-24T04:17:40.569Z,18.70
2022-11-24T04:20:09.046Z,13.75
2022-11-24T04:22:36.418Z,15.50
2022-11-24T04:25:06.265Z,15.23
2022-11-24T04:27:33.704Z,20.98
2022-11-24T04:30:00.864Z,16.48
2022-11-24T04:32:27.914Z,18.45
2022-11-24T04:34:54.825Z,15.43
2022-11-24T04:37:21.817Z,16.15
2022-11-24T04:39:48.962Z,15.60
2022-11-24T04:42:17.652Z,19.65
2022-11-24T04:44:44.936Z,15.73
2022-11-24T04:47:15.261Z,11.20
2022-11-24T04:49:42.306Z,13.82
2022-11-24T04:52:09.221Z,13.57
2022-11-24T04:54:37.441Z,10.68
2022-11-24T04:57:04.640Z,10.88
2022-11-24T04:59:33.520Z,11.50
2022-11-24T05:02:00.508Z,10.55
2022-11-24T05:04:27.668Z,9.48
2022-11-24T05:06:54.621Z,21.23
2022-11-24T05:09:21.565Z,14.88
2022-11-24T05:11:50.919Z,12.00
2022-11-24T05:14:17.871Z,13.20
2022-11-24T05:16:46.466Z,15.45
2022-11-24T05:19:14.196Z,24.10
2022-11-24T05:21:41.222Z,20.83
2022-11-24T05:24:08.710Z,24.25
2022-11-24T05:26:35.734Z,16.42
2022-11-24T05:29:02.684Z,18.05
2022-11-24T05:31:29.719Z,11.90
2022-11-24T05:33:58.140Z,12.07
2022-11-24T05:36:43.413Z,7.00
2022-11-24T05:39:10.335Z,8.60
2022-11-24T05:41:37.831Z,7.90
2022-11-24T05:44:05.185Z,6.32
2022-11-24T05:46:32.650Z,8.02
2022-11-24T05:49:04.174Z,7.80
2022-11-24T05:51:31.329Z,15.40
2022-11-24T05:53:58.538Z,8.75
2022-11-24T05:56:25.495Z,8.68
2022-11-24T05:58:52.758Z,12.98
2022-11-24T06:01:19.714Z,8.68
2022-11-24T06:03:46.648Z,8.82
2022-11-24T06:06:15.018Z,7.95
2022-11-24T06:08:41.964Z,8.25
2022-11-24T06:11:18.580Z,8.82
2022-11-24T06:13:46.732Z,8.57
2022-11-24T06:16:14.976Z,10.32
2022-11-24T06:18:42.243Z,8.57
2022-11-24T06:21:11.461Z,8.13
2022-11-24T06:23:40.706Z,7.45
2022-11-24T06:26:07.830Z,7.18
2022-11-24T06:28:35.091Z,12.23
2022-11-24T06:31:02.650Z,8.45
2022-11-24T06:33:33.500Z,8.48
2022-11-24T06:36:03.539Z,13.23
2022-11-24T06:38:31.399Z,6.80
2022-11-24T06:41:04.244Z,7.45
2022-11-24T06:43:31.251Z,8.02
2022-11-24T06:45:58.978Z,8.95
2022-11-24T06:48:26.930Z,8.45
2022-11-24T06:50:54.234Z,10.68
2022-11-24T06:53:21.423Z,7.60
2022-11-24T06:55:48.414Z,9.32
2022-11-24T06:58:16.871Z,7.07
2022-11-24T07:00:44.115Z,10.55
2022-11-24T07:03:15.716Z,7.40
2022-11-24T07:05:43.217Z,8.20
2022-11-24T07:08:14.677Z,5.90
2022-11-24T07:10:44.700Z,5.18
2022-11-24T07:13:11.989Z,7.57
2022-11-24T07:15:40.288Z,6.93
2022-11-24T07:18:07.226Z,7.35
2022-11-24T07:20:34.457Z,10.38
2022-11-24T07:23:01.379Z,11.80
2022-11-24T07:25:28.485Z,10.02
2022-11-24T07:27:59.549Z,8.35
2022-11-24T07:30:28.418Z,16.08
2022-11-24T07:33:00.658Z,8.95
2022-11-24T07:35:28.206Z,6.40
2022-11-24T07:37:56.247Z,7.07
2022-11-24T07:40:23.941Z,4.97
2022-11-24T07:42:50.949Z,4.70
2022-11-24T07:45:17.930Z,6.55
2022-11-24T07:47:44.887Z,6.88
2022-11-24T07:50:13.766Z,6.30
2022-11-24T07:52:40.945Z,8.25
2022-11-24T07:55:09.149Z,7.47
2022-11-24T07:57:36.326Z,6.80
2022-11-24T08:00:05.799Z,6.38
2022-11-24T08:02:33.834Z,7.13
2022-11-24T08:05:00.907Z,6.88
2022-11-24T08:07:29.385Z,7.07
2022-11-24T08:09:56.460Z,9.30
2022-11-24T08:12:23.476Z,7.32
2022-11-24T08:14:50.759Z,6.68
2022-11-24T08:17:17.816Z,7.75
2022-11-24T08:19:45.074Z,6.95
2022-11-24T08:22:12.228Z,10.55
2022-11-24T08:24:47.139Z,9.43
2022-11-24T08:27:15.006Z,10.80
2022-11-24T08:29:42.076Z,10.23
2022-11-24T08:32:09.809Z,11.70
2022-11-24T08:34:37.247Z,11.35
2022-11-24T08:37:04.778Z,12.07
2022-11-24T08:39:31.993Z,12.30
2022-11-24T08:42:00.381Z,14.50
2022-11-24T08:44:28.812Z,16.83
2022-11-24T08:46:56.290Z,14.43
2022-11-24T08:49:23.348Z,17.48
2022-11-24T08:51:51.369Z,13.77
2022-11-24T08:54:21.717Z,12.18
2022-11-24T08:56:49.566Z,14.00
2022-11-24T08:59:18.421Z,11.73
2022-11-24T09:01:45.560Z,10.95
2022-11-24T09:04:12.603Z,10.32
2022-11-24T09:06:39.566Z,9.38
2022-11-24T09:09:06.862Z,11.60
2022-11-24T09:11:35.016Z,10.02
2022-11-24T09:14:02.108Z,12.35
2022-11-24T09:16:30.564Z,11.57
2022-11-24T09:18:59.025Z,9.98
2022-11-24T09:21:26.161Z,11.32
2022-11-24T09:23:54.563Z,13.85
2022-11-24T09:26:23.252Z,12.88
2022-11-24T09:28:54.334Z,12.82
2022-11-24T09:31:23.147Z,14.52
2022-11-24T09:33:52.423Z,15.65
2022-11-24T09:36:20.276Z,21.85
2022-11-24T09:38:47.956Z,14.93
2022-11-24T09:41:38.078Z,15.07
2022-11-24T09:44:10.222Z,20.48
2022-11-24T09:46:49.837Z,17.15
2022-11-24T09:49:27.984Z,20.17
2022-11-24T09:51:57.171Z,20.48
2022-11-24T09:54:28.564Z,18.27
2022-11-24T09:56:59.852Z,20.85
2022-11-24T09:59:27.564Z,19.95
2022-11-24T10:01:55.824Z,27.65
2022-11-24T10:04:28.331Z,21.60
2022-11-24T10:07:01.794Z,17.88
2022-11-24T10:09:42.965Z,16.75
2022-11-24T10:12:21.129Z,13.00
2022-11-24T10:15:19.139Z,12.05
2022-11-24T10:17:59.681Z,17.50
2022-11-24T10:20:41.465Z,15.02
2022-11-24T10:23:26.167Z,13.85
2022-11-24T10:25:57.489Z,13.98
2022-11-24T10:28:29.612Z,12.82
2022-11-24T10:31:13.274Z,13.13
2022-11-24T10:33:41.746Z,11.43
2022-11-24T10:36:15.168Z,11.73
2022-11-24T10:38:49.163Z,10.52
2022-11-24T10:41:21.090Z,10.68
2022-11-24T10:43:48.179Z,10.48
2022-11-24T10:46:19.803Z,9.82
2022-11-24T10:48:50.501Z,10.38
2022-11-24T10:51:38.740Z,8.30
2022-11-24T10:54:10.782Z,7.22
2022-11-24T10:56:41.376Z,8.88
2022-11-24T10:59:22.468Z,10.38
2022-11-24T11:01:50.478Z,9.57
2022-11-24T11:04:20.434Z,9.70
2022-11-24T11:06:48.979Z,14.75
2022-11-24T11:09:19.631Z,16.58
2022-11-24T11:11:48.823Z,18.92
2022-11-24T11:14:30.477Z,20.65
2022-11-24T11:16:58.120Z,24.05
2022-11-24T11:19:50.893Z,23.58
2022-11-24T11:22:26.063Z,28.40
2022-11-24T11:25:05.521Z,30.02
2022-11-24T11:27:32.654Z,32.78
2022-11-24T11:36:13.131Z,27.90
2022-11-24T11:38:42.966Z,25.70
2022-11-24T11:41:18.794Z,28.65
2022-11-24T11:43:50.636Z,27.73
2022-11-24T11:46:17.743Z,12.73
2022-11-24T11:48:46.857Z,11.73
2022-11-24T11:51:30.017Z,7.85
2022-11-24T11:54:07.955Z,6.80
2022-11-24T11:56:40.337Z,5.35
2022-11-24T11:59:43.801Z,5.30
2022-11-24T12:02:38.735Z,3.47
2022-11-24T12:05:13.810Z,1.85
2022-11-24T12:07:55.153Z,1.80
2022-11-24T12:10:36.308Z,4.03
2022-11-24T12:13:19.515Z,1.73
2022-11-24T12:15:50.179Z,1.55
2022-11-24T12:18:55.961Z,1.50
2022-11-24T12:21:24.536Z,1.45
2022-11-24T12:24:03.321Z,8.70
2022-11-24T12:26:40.147Z,1.40
2022-11-24T12:29:34.316Z,2.53
2022-11-24T12:32:11.177Z,2.05
2022-11-24T12:34:51.395Z,1.50
2022-11-24T12:37:43.729Z,1.40
2022-11-24T12:40:16.139Z,2.85
2022-11-24T12:42:57.585Z,2.30
2022-11-24T12:45:34.442Z,4.10
2022-11-24T12:48:22.972Z,2.50
2022-11-24T12:50:51.795Z,5.13
2022-11-24T12:53:23.713Z,2.15
2022-11-24T12:55:51.401Z,2.45
2022-11-24T12:58:25.477Z,2.30
2022-11-24T13:01:14.715Z,2.45
2022-11-24T13:03:56.821Z,2.20
2022-11-24T13:06:28.529Z,3.97
2022-11-24T13:08:56.754Z,2.38
2022-11-24T13:11:37.500Z,3.72
2022-11-24T13:14:15.275Z,2.55
2022-11-24T13:17:21.831Z,3.42
2022-11-24T13:19:41.695Z,4.70
2022-11-24T13:22:22.983Z,3.40
2022-11-24T13:25:10.846Z,2.50
2022-11-24T13:27:43.853Z,5.05
2022-11-24T13:30:50.754Z,4.70
2022-11-24T13:33:43.094Z,16.77
2022-11-24T13:36:34.553Z,4.38
2022-11-24T13:39:04.014Z,4.38
2022-11-24T13:42:07.368Z,7.35
2022-11-24T13:44:45.007Z,3.80
2022-11-24T13:47:45.347Z,4.70
2022-11-24T13:50:25.103Z,5.20
2022-11-24T13:53:01.266Z,6.35
2022-11-24T13:55:38.839Z,6.22
2022-11-24T13:58:36.237Z,4.53
2022-11-24T14:01:12.146Z,6.55
2022-11-24T14:03:55.353Z,6.47
2022-11-24T14:06:37.905Z,4.97
2022-11-24T14:09:25.875Z,5.72
2022-11-24T14:12:04.381Z,6.68
2022-11-24T14:14:31.534Z,6.47
2022-11-24T14:17:23.465Z,7.97
2022-11-24T14:19:52.786Z,7.13
2022-11-24T14:22:23.273Z,8.68
2022-11-24T14:24:55.226Z,6.72
2022-11-24T14:27:29.671Z,7.75
2022-11-24T14:29:58.182Z,8.00
2022-11-24T14:32:25.224Z,8.80
2022-11-24T14:34:54.112Z,7.63
2022-11-24T14:37:26.044Z,9.65
2022-11-24T14:39:53.482Z,7.60
2022-11-24T14:42:23.611Z,9.10
2022-11-24T14:44:54.198Z,9.55
2022-11-24T14:47:31.806Z,10.88
2022-11-24T14:50:09.760Z,10.77
2022-11-24T14:52:44.994Z,8.45
2022-11-24T14:55:25.536Z,7.40
2022-11-24T14:57:52.685Z,7.57
2022-11-24T15:00:25.869Z,9.68
2022-11-24T15:02:55.059Z,8.20
2022-11-24T15:05:24.130Z,9.57
2022-11-24T15:08:01.557Z,12.15
2022-11-24T15:10:33.870Z,9.55
2022-11-24T15:13:04.419Z,10.63
2022-11-24T15:15:33.757Z,9.55
2022-11-24T15:18:02.221Z,8.52
2022-11-24T15:20:32.019Z,8.13
2022-11-24T15:23:23.468Z,8.38
2022-11-24T15:25:51.772Z,10.98
2022-11-24T15:28:19.673Z,9.13
2022-11-24T15:30:46.620Z,8.27
2022-11-24T15:33:16.343Z,9.00
2022-11-24T15:35:44.253Z,8.10
2022-11-24T15:38:14.049Z,10.05
2022-11-24T15:40:45.224Z,12.98
2022-11-24T15:43:19.361Z,8.93
2022-11-24T15:45:49.421Z,9.80
2022-11-24T15:48:18.117Z,8.18
2022-11-24T15:50:46.069Z,10.10
2022-11-24T15:53:18.968Z,9.68
2022-11-24T15:55:47.571Z,9.55
2022-11-24T15:58:15.210Z,11.43
2022-11-24T16:00:43.182Z,11.55
2022-11-24T16:03:44.645Z,8.60
2022-11-24T16:05:57.624Z,9.35
2022-11-24T16:08:24.642Z,10.57
2022-11-24T16:10:53.393Z,13.95
2022-11-24T16:13:20.377Z,17.20
2022-11-24T16:15:47.331Z,17.20
2022-11-24T16:18:15.713Z,15.38
2022-11-24T16:20:42.696Z,17.50
2022-11-24T16:23:09.976Z,14.38
2022-11-24T16:25:36.963Z,14.48
2022-11-24T16:28:05.538Z,15.57
2022-11-24T16:30:32.517Z,16.48
2022-11-24T16:32:59.499Z,16.73
2022-11-24T16:35:26.519Z,20.90
2022-11-24T16:37:53.596Z,17.35
2022-11-24T16:40:20.641Z,17.30
2022-11-24T16:42:47.648Z,19.77
2022-11-24T16:45:16.055Z,17.83
2022-11-24T16:47:43.089Z,18.20
2022-11-24T16:50:11.519Z,22.15
2022-11-24T16:52:38.893Z,18.05
2022-11-24T16:55:06.501Z,15.95
2022-11-24T16:57:33.868Z,13.93
2022-11-24T17:00:00.926Z,17.65
2022-11-24T17:02:29.534Z,13.07
2022-11-24T17:04:56.530Z,14.73
2022-11-24T17:07:23.485Z,26.58
2022-11-24T17:09:50.460Z,19.45
2022-11-24T17:12:17.661Z,18.05
2022-11-24T17:15:03.127Z,22.17
2022-11-24T17:17:32.961Z,18.20
2022-11-24T17:19:59.953Z,21.65
2022-11-24T17:22:27.990Z,22.10
2022-11-24T17:24:54.933Z,19.83
2022-11-24T17:27:21.833Z,17.52
2022-11-24T17:29:48.815Z,18.88
2022-11-24T17:32:15.756Z,16.98
2022-11-24T17:34:44.156Z,18.77
2022-11-24T17:37:11.049Z,21.02
2022-11-24T17:39:38.148Z,21.15
2022-11-24T17:42:05.172Z,22.35
2022-11-24T17:44:32.342Z,23.13
2022-11-24T17:47:00.889Z,24.58
2022-11-24T17:49:30.361Z,23.45
2022-11-24T17:51:59.063Z,26.48
2022-11-24T17:57:12.928Z,23.92
2022-11-24T17:59:40.252Z,22.88
2022-11-24T18:02:08.806Z,25.52
2022-11-24T18:04:35.892Z,24.35
2022-11-24T18:07:04.425Z,24.80
2022-11-24T18:09:31.358Z,28.52
2022-11-24T18:11:58.320Z,25.17
2022-11-24T18:14:25.292Z,21.63
2022-11-24T18:16:52.384Z,20.83
2022-11-24T18:19:19.386Z,21.40
2022-11-24T18:21:46.637Z,17.30
2022-11-24T18:24:18.509Z,16.00
2022-11-24T18:26:50.444Z,15.32
2022-11-24T18:29:17.361Z,16.70
2022-11-24T18:31:44.390Z,16.23
2022-11-24T18:34:11.375Z,16.70
2022-11-24T18:36:38.332Z,17.58
2022-11-24T18:39:07.399Z,14.75
2022-11-24T18:41:35.979Z,22.05
2022-11-24T18:44:07.566Z,16.92
2022-11-24T18:46:35.018Z,17.42
2022-11-24T18:49:01.979Z,16.80
2022-11-24T18:51:29.242Z,16.58
2022-11-24T18:53:58.252Z,19.33
2022-11-24T18:56:26.506Z,17.60
2022-11-24T18:58:57.041Z,19.40
2022-11-24T19:01:25.792Z,20.40
2022-11-24T19:03:54.432Z,18.90
2022-11-24T19:06:27.020Z,19.60
2022-11-24T19:08:55.021Z,17.85
2022-11-24T19:11:23.706Z,18.67
2022-11-24T19:13:51.135Z,20.52
2022-11-24T19:16:20.700Z,19.60
2022-11-24T19:18:54.018Z,23.20
2022-11-24T19:21:22.086Z,14.57
2022-11-24T19:23:49.856Z,9.70
2022-11-24T19:26:17.005Z,13.32
2022-11-24T19:28:44.064Z,9.65
2022-11-24T19:31:13.012Z,8.95
2022-11-24T19:33:42.086Z,11.18
2022-11-24T19:36:12.901Z,12.60
2022-11-24T19:38:41.420Z,10.68
2022-11-24T19:41:10.042Z,9.38
2022-11-24T19:43:37.118Z,9.30
2022-11-24T19:46:05.319Z,8.40
2022-11-24T19:48:37.359Z,8.07
2022-11-24T19:51:07.413Z,7.15
2022-11-24T19:53:35.612Z,7.97
2022-11-24T19:56:06.217Z,9.50
2022-11-24T19:58:33.793Z,9.82
2022-11-24T20:01:07.057Z,7.93
2022-11-24T20:03:34.381Z,10.75
2022-11-24T20:06:01.456Z,9.48
2022-11-24T20:08:30.777Z,12.60
2022-11-24T20:11:02.921Z,14.00
2022-11-24T20:13:30.100Z,17.25
2022-11-24T20:16:01.822Z,17.38
2022-11-24T20:18:30.537Z,16.98
2022-11-24T20:21:02.305Z,15.73
2022-11-24T20:23:30.686Z,15.45
2022-11-24T20:26:04.216Z,13.95
2022-11-24T20:28:31.539Z,15.20
2022-11-24T20:31:01.874Z,19.17
2022-11-24T20:33:29.146Z,13.80
2022-11-24T20:35:56.461Z,13.38
2022-11-24T20:38:23.574Z,17.60
2022-11-24T20:40:53.278Z,14.75
2022-11-24T20:43:20.243Z,13.32
2022-11-24T20:45:47.241Z,12.73
2022-11-24T20:48:14.437Z,13.07
2022-11-24T20:50:41.405Z,13.18
2022-11-24T20:53:08.415Z,13.23
2022-11-24T20:55:35.441Z,11.98
2022-11-24T20:58:03.765Z,11.65
2022-11-24T21:00:31.000Z,11.63
2022-11-24T21:02:58.582Z,14.98
2022-11-24T21:05:25.644Z,11.48
2022-11-24T21:07:52.604Z,13.18
2022-11-24T21:10:19.599Z,14.05
2022-11-24T21:12:46.579Z,11.52
2022-11-24T21:15:14.910Z,12.93
2022-11-24T21:17:42.041Z,12.15
2022-11-24T21:20:10.604Z,12.77
2022-11-24T21:22:39.047Z,12.98
2022-11-24T21:25:06.697Z,14.25
2022-11-24T21:27:33.789Z,15.50
2022-11-24T21:30:00.726Z,15.65
2022-11-24T21:32:29.473Z,13.75
2022-11-24T21:34:56.546Z,19.50
2022-11-24T21:37:23.543Z,18.33
2022-11-24T21:39:50.553Z,13.57
2022-11-24T21:42:17.562Z,8.77
2022-11-24T21:44:44.612Z,10.27
2022-11-24T21:47:11.580Z,6.15
2022-11-24T21:49:39.953Z,6.25
2022-11-24T21:52:06.882Z,6.32
2022-11-24T21:54:34.238Z,6.95
2022-11-24T21:57:01.415Z,4.57
2022-11-24T21:59:28.409Z,6.50
2022-11-24T22:01:56.232Z,17.10
2022-11-24T22:04:23.221Z,5.93
2022-11-24T22:06:52.638Z,6.38
2022-11-24T22:09:19.625Z,5.28
2022-11-24T22:11:49.327Z,5.10
2022-11-24T22:14:16.456Z,5.10
2022-11-24T22:16:43.547Z,5.43
2022-11-24T22:19:10.513Z,4.45
2022-11-24T22:21:37.438Z,4.00
2022-11-24T22:24:06.455Z,5.25
2022-11-24T22:26:33.401Z,8.18
2022-11-24T22:29:00.574Z,6.25
2022-11-24T22:31:28.851Z,6.75
2022-11-24T22:33:57.316Z,4.70
2022-11-24T22:36:26.008Z,5.10
2022-11-24T22:38:53.952Z,5.80
2022-11-24T22:41:22.604Z,4.70
2022-11-24T22:43:49.881Z,4.60
2022-11-24T22:46:18.061Z,5.60
2022-11-24T22:48:46.562Z,5.80
2022-11-24T22:51:14.991Z,7.13
2022-11-24T22:53:42.564Z,5.28
2022-11-24T22:56:11.198Z,7.22
2022-11-24T22:58:40.120Z,5.32
2022-11-24T23:01:08.517Z,5.65
2022-11-24T23:03:36.438Z,5.90
2022-11-24T23:06:05.336Z,5.47
2022-11-24T23:08:33.621Z,6.13
2022-11-24T23:11:01.228Z,5.70
2022-11-24T23:13:28.428Z,5.43
2022-11-24T23:16:01.703Z,4.70
2022-11-24T23:18:28.854Z,7.25
2022-11-24T23:20:56.165Z,6.50
2022-11-24T23:23:23.079Z,5.47
2022-11-24T23:25:50.004Z,7.38
2022-11-24T23:28:17.056Z,6.75
2022-11-24T23:30:44.028Z,7.57
2022-11-24T23:33:12.400Z,6.60
2022-11-24T23:35:39.436Z,6.80
2022-11-24T23:38:07.772Z,6.70
2022-11-24T23:40:35.140Z,5.22
2022-11-24T23:43:02.100Z,4.65
2022-11-24T23:45:29.106Z,5.47
2022-11-24T23:47:56.068Z,4.25
2022-11-24T23:50:24.388Z,4.40
2022-11-24T23:52:51.331Z,5.72
2022-11-24T23:55:19.289Z,7.90
2022-11-24T23:57:46.433Z,5.13
